Time;durP1;ratioP1;P1;durP2;ratioP2;P2;SDS_P1;SDS_P2;PMS_P1;PMS_P2;Temp;Humidity;BMP_temperature;BMP_pressure;BME280_temperature;BME280_humidity;BME280_pressure;Samples;Min_cycle;Max_cycle;Signal;HPM_P1;HPM_P2
2023/08/17 00:00:20;;;;;;;2.25;2.10;;;;;;;;;;4934495;29;20307;-86
2023/08/17 00:02:48;;;;;;;3.22;3.03;;;;;;;;;;4933816;29;20279;-88
2023/08/17 00:05:17;;;;;;;4.70;2.72;;;;;;;;;;4934630;29;20918;-86
2023/08/17 00:07:48;;;;;;;3.38;2.63;;;;;;;;;;4935317;29;20211;-85
2023/08/17 00:10:21;;;;;;;2.78;2.60;;;;;;;;;;4938606;29;20223;-84
2023/08/17 00:12:55;;;;;;;4.50;3.60;;;;;;;;;;4938950;29;20196;-86
2023/08/17 00:15:45;;;;;;;3.00;2.80;;;;;;;;;;4934111;29;20218;-84
2023/08/17 00:18:16;;;;;;;3.75;2.63;;;;;;;;;;4934433;29;20239;-83
2023/08/17 00:20:45;;;;;;;2.90;2.70;;;;;;;;;;4933520;29;20271;-86
2023/08/17 00:23:14;;;;;;;7.80;3.25;;;;;;;;;;4933422;29;20286;-86
2023/08/17 00:25:42;;;;;;;2.70;2.50;;;;;;;;;;4933012;29;20207;-87
2023/08/17 00:28:11;;;;;;;4.13;3.20;;;;;;;;;;4936519;29;20212;-86
2023/08/17 00:30:42;;;;;;;3.03;2.58;;;;;;;;;;4946003;29;20854;-84
2023/08/17 00:33:11;;;;;;;3.22;3.03;;;;;;;;;;4936433;29;20634;-85
2023/08/17 00:35:40;;;;;;;4.22;2.92;;;;;;;;;;4933703;29;20200;-85
2023/08/17 00:38:12;;;;;;;4.30;3.10;;;;;;;;;;4932572;29;20708;-85
2023/08/17 00:40:45;;;;;;;5.88;3.08;;;;;;;;;;4932710;29;20187;-86
2023/08/17 00:43:13;;;;;;;2.58;2.38;;;;;;;;;;4934251;29;20203;-86
2023/08/17 00:45:45;;;;;;;2.33;2.22;;;;;;;;;;4933206;29;20274;-85
2023/08/17 00:48:14;;;;;;;2.53;2.33;;;;;;;;;;4933338;29;20212;-86
2023/08/17 00:50:42;;;;;;;2.72;2.53;;;;;;;;;;4933649;29;20211;-86
2023/08/17 00:53:15;;;;;;;2.55;2.42;;;;;;;;;;4933649;29;20631;-87
2023/08/17 00:55:46;;;;;;;4.75;2.38;;;;;;;;;;4934359;29;20203;-88
2023/08/17 00:58:15;;;;;;;2.00;1.90;;;;;;;;;;4949256;29;20242;-87
2023/08/17 01:00:45;;;;;;;2.60;2.38;;;;;;;;;;4954301;29;20348;-86
2023/08/17 01:03:16;;;;;;;1.98;1.88;;;;;;;;;;4956666;29;20203;-88
2023/08/17 01:05:45;;;;;;;2.53;2.40;;;;;;;;;;4957193;29;20212;-86
2023/08/17 01:08:17;;;;;;;2.15;1.92;;;;;;;;;;4921208;29;20692;-86
2023/08/17 01:10:49;;;;;;;2.25;2.15;;;;;;;;;;4934078;29;20315;-86
2023/08/17 01:13:21;;;;;;;2.05;1.95;;;;;;;;;;4934143;29;20208;-87
2023/08/17 01:15:54;;;;;;;2.67;2.40;;;;;;;;;;4932822;29;20211;-87
2023/08/17 01:18:31;;;;;;;1.45;1.40;;;;;;;;;;4933756;29;20239;-87
2023/08/17 01:21:01;;;;;;;1.77;1.67;;;;;;;;;;4933550;29;20290;-86
2023/08/17 01:23:32;;;;;;;1.42;1.40;;;;;;;;;;4933088;29;20203;-86
2023/08/17 01:26:02;;;;;;;2.33;1.60;;;;;;;;;;4934042;29;20216;-86
2023/08/17 01:28:31;;;;;;;1.55;1.45;;;;;;;;;;4934075;29;20646;-85
2023/08/17 01:31:00;;;;;;;4.00;1.92;;;;;;;;;;4932859;29;20231;-84
2023/08/17 01:33:34;;;;;;;1.50;1.40;;;;;;;;;;4932595;29;20206;-86
2023/08/17 01:36:11;;;;;;;1.10;1.10;;;;;;;;;;4932655;29;20261;-85
2023/08/17 01:38:46;;;;;;;1.52;1.42;;;;;;;;;;4931835;29;20359;-86
2023/08/17 01:41:17;;;;;;;1.85;1.80;;;;;;;;;;4932436;29;20196;-86
2023/08/17 01:43:47;;;;;;;1.63;1.50;;;;;;;;;;4931667;29;20197;-85
2023/08/17 01:46:17;;;;;;;1.40;1.40;;;;;;;;;;4932056;29;20224;-86
2023/08/17 01:48:46;;;;;;;2.05;1.42;;;;;;;;;;4929778;29;20442;-88
2023/08/17 01:51:18;;;;;;;1.40;1.40;;;;;;;;;;4931759;29;20219;-88
2023/08/17 01:53:48;;;;;;;3.15;1.58;;;;;;;;;;4931613;29;20283;-87
2023/08/17 01:56:19;;;;;;;2.30;1.92;;;;;;;;;;4931874;29;20191;-86
2023/08/17 01:58:50;;;;;;;1.52;1.42;;;;;;;;;;4931812;29;20329;-86
2023/08/17 02:01:23;;;;;;;5.60;1.70;;;;;;;;;;4931888;29;20226;-87
2023/08/17 02:03:52;;;;;;;1.60;1.50;;;;;;;;;;4932730;29;20204;-87
2023/08/17 02:06:20;;;;;;;1.35;1.33;;;;;;;;;;4932566;29;20215;-86
2023/08/17 02:08:51;;;;;;;2.63;1.58;;;;;;;;;;4931541;29;20658;-87
2023/08/17 02:11:22;;;;;;;3.10;1.48;;;;;;;;;;4932951;29;20214;-87
2023/08/17 02:13:51;;;;;;;11.43;1.33;;;;;;;;;;4932209;29;20199;-86
2023/08/17 02:16:24;;;;;;;5.80;1.67;;;;;;;;;;4931768;29;20593;-85
2023/08/17 02:18:59;;;;;;;1.98;1.65;;;;;;;;;;4932098;29;20227;-87
2023/08/17 02:21:29;;;;;;;1.60;1.50;;;;;;;;;;4931909;29;20237;-85
2023/08/17 02:24:00;;;;;;;1.50;1.40;;;;;;;;;;4932378;29;20207;-86
2023/08/17 02:26:30;;;;;;;4.43;1.92;;;;;;;;;;4931461;29;20287;-84
2023/08/17 02:28:59;;;;;;;2.00;1.90;;;;;;;;;;4939107;29;20211;-85
2023/08/17 02:31:30;;;;;;;1.88;1.77;;;;;;;;;;4942849;29;20222;-86
2023/08/17 02:34:04;;;;;;;2.92;1.77;;;;;;;;;;4933619;29;20202;-85
2023/08/17 02:36:34;;;;;;;1.95;1.85;;;;;;;;;;4932847;29;20225;-85
2023/08/17 02:39:05;;;;;;;1.50;1.40;;;;;;;;;;4932951;29;20265;-85
2023/08/17 02:41:34;;;;;;;1.50;1.45;;;;;;;;;;4932258;29;20397;-85
2023/08/17 02:44:04;;;;;;;6.53;1.90;;;;;;;;;;4932117;29;20691;-86
2023/08/17 02:46:34;;;;;;;1.98;1.88;;;;;;;;;;4931833;29;20216;-85
2023/08/17 02:49:05;;;;;;;1.48;1.38;;;;;;;;;;4931431;29;20217;-86
2023/08/17 02:51:34;;;;;;;1.60;1.50;;;;;;;;;;4931638;29;20272;-86
2023/08/17 02:54:05;;;;;;;1.70;1.60;;;;;;;;;;4932412;29;20210;-85
2023/08/17 02:56:33;;;;;;;3.17;1.83;;;;;;;;;;4932742;29;20241;-85
2023/08/17 02:59:04;;;;;;;3.38;1.73;;;;;;;;;;4930619;29;20238;-87
2023/08/17 03:01:33;;;;;;;1.50;1.40;;;;;;;;;;4935135;29;20208;-85
2023/08/17 03:04:02;;;;;;;3.35;1.58;;;;;;;;;;4935745;29;20413;-85
2023/08/17 03:06:31;;;;;;;2.33;2.20;;;;;;;;;;4935264;29;20659;-86
2023/08/17 03:09:00;;;;;;;1.48;1.40;;;;;;;;;;4935715;29;20584;-85
2023/08/17 03:11:30;;;;;;;1.55;1.48;;;;;;;;;;4940992;29;20620;-86
2023/08/17 03:14:01;;;;;;;2.00;1.90;;;;;;;;;;4940133;29;20197;-83
2023/08/17 03:16:30;;;;;;;1.42;1.33;;;;;;;;;;4935452;29;20265;-86
2023/08/17 03:18:59;;;;;;;1.30;1.23;;;;;;;;;;4934725;29;20332;-86
2023/08/17 03:21:28;;;;;;;1.73;1.63;;;;;;;;;;4935128;29;20229;-85
2023/08/17 03:24:00;;;;;;;1.35;1.30;;;;;;;;;;4935405;29;20204;-87
2023/08/17 03:26:29;;;;;;;2.03;1.55;;;;;;;;;;4936119;29;20261;-85
2023/08/17 03:28:59;;;;;;;5.05;1.60;;;;;;;;;;4934568;29;20229;-85
2023/08/17 03:31:28;;;;;;;1.80;1.70;;;;;;;;;;4936530;29;20213;-86
2023/08/17 03:33:57;;;;;;;1.73;1.70;;;;;;;;;;4937221;29;20207;-85
2023/08/17 03:36:25;;;;;;;1.70;1.60;;;;;;;;;;4935702;29;20234;-85
2023/08/17 03:38:54;;;;;;;1.60;1.50;;;;;;;;;;4936050;29;20230;-86
2023/08/17 03:41:25;;;;;;;2.67;2.00;;;;;;;;;;4936531;29;20194;-85
2023/08/17 03:43:56;;;;;;;1.95;1.85;;;;;;;;;;4936095;29;20667;-85
2023/08/17 03:46:25;;;;;;;1.63;1.60;;;;;;;;;;4936005;29;20210;-86
2023/08/17 03:48:58;;;;;;;1.90;1.80;;;;;;;;;;4936662;29;20274;-86
2023/08/17 03:51:27;;;;;;;3.80;1.90;;;;;;;;;;4935592;29;20412;-85
2023/08/17 03:53:58;;;;;;;2.28;1.55;;;;;;;;;;4936536;29;20278;-86
2023/08/17 03:56:30;;;;;;;1.65;1.65;;;;;;;;;;4935425;29;20273;-86
2023/08/17 03:59:02;;;;;;;1.58;1.48;;;;;;;;;;4934728;29;20231;-86
2023/08/17 04:01:32;;;;;;;1.92;1.83;;;;;;;;;;4935890;29;20214;-86
2023/08/17 04:04:03;;;;;;;1.75;1.65;;;;;;;;;;4936006;29;20652;-86
2023/08/17 04:06:34;;;;;;;1.75;1.65;;;;;;;;;;4935620;29;20238;-86
2023/08/17 04:09:04;;;;;;;1.23;1.23;;;;;;;;;;4933775;29;20294;-86
2023/08/17 04:11:35;;;;;;;1.17;1.17;;;;;;;;;;4934068;29;20216;-85
2023/08/17 04:14:08;;;;;;;10.00;1.50;;;;;;;;;;4932840;29;20648;-87
2023/08/17 04:16:37;;;;;;;1.15;1.15;;;;;;;;;;4935031;29;20219;-86
2023/08/17 04:19:09;;;;;;;3.22;1.08;;;;;;;;;;4934270;29;20230;-86
2023/08/17 04:21:40;;;;;;;2.38;1.35;;;;;;;;;;4932634;29;20657;-87
2023/08/17 04:24:10;;;;;;;1.50;1.23;;;;;;;;;;4934352;29;20234;-85
2023/08/17 04:26:39;;;;;;;1.10;1.10;;;;;;;;;;4935821;29;20199;-88
2023/08/17 04:29:11;;;;;;;1.50;1.40;;;;;;;;;;4935783;29;20736;-86
2023/08/17 04:31:41;;;;;;;1.33;1.33;;;;;;;;;;4933986;29;20200;-88
2023/08/17 04:34:13;;;;;;;2.03;1.70;;;;;;;;;;4932440;29;20204;-85
2023/08/17 04:36:44;;;;;;;2.90;1.60;;;;;;;;;;4933774;29;20703;-87
2023/08/17 04:39:14;;;;;;;2.30;2.17;;;;;;;;;;4934434;29;20235;-86
2023/08/17 04:41:44;;;;;;;2.42;2.03;;;;;;;;;;4936463;29;20211;-86
2023/08/17 04:44:14;;;;;;;2.03;1.92;;;;;;;;;;4948919;29;20265;-85
2023/08/17 04:46:45;;;;;;;2.03;1.90;;;;;;;;;;4956670;29;20236;-85
2023/08/17 04:49:17;;;;;;;2.42;2.05;;;;;;;;;;4955337;29;20262;-85
2023/08/17 04:51:47;;;;;;;2.95;2.60;;;;;;;;;;4956818;29;20207;-86
2023/08/17 04:54:15;;;;;;;2.10;1.95;;;;;;;;;;4946867;29;20234;-85
2023/08/17 04:56:44;;;;;;;3.28;2.08;;;;;;;;;;4936410;29;20301;-86
2023/08/17 04:59:15;;;;;;;1.80;1.80;;;;;;;;;;4934911;29;20262;-85
2023/08/17 05:01:44;;;;;;;2.25;2.05;;;;;;;;;;4935409;29;20283;-88
2023/08/17 05:04:14;;;;;;;2.20;2.10;;;;;;;;;;4933413;29;20195;-86
2023/08/17 05:06:43;;;;;;;2.92;2.00;;;;;;;;;;4934693;29;20207;-86
2023/08/17 05:09:14;;;;;;;4.72;2.35;;;;;;;;;;4935377;29;20231;-86
2023/08/17 05:11:46;;;;;;;2.42;2.28;;;;;;;;;;4936442;29;20191;-87
2023/08/17 05:14:18;;;;;;;3.95;2.15;;;;;;;;;;4934687;29;20368;-86
2023/08/17 05:16:49;;;;;;;2.40;2.30;;;;;;;;;;4935334;29;20203;-87
2023/08/17 05:19:19;;;;;;;2.92;2.67;;;;;;;;;;4934594;29;20195;-87
2023/08/17 05:21:51;;;;;;;6.45;2.67;;;;;;;;;;4936766;29;20201;-85
2023/08/17 05:24:21;;;;;;;2.53;2.28;;;;;;;;;;4934323;29;20259;-86
2023/08/17 05:26:51;;;;;;;3.45;3.25;;;;;;;;;;4935745;29;20569;-87
2023/08/17 05:29:23;;;;;;;2.75;2.55;;;;;;;;;;4937336;29;20230;-86
2023/08/17 05:31:53;;;;;;;3.72;2.28;;;;;;;;;;4935920;29;20315;-87
2023/08/17 05:34:23;;;;;;;2.85;2.65;;;;;;;;;;4934492;29;20561;-87
2023/08/17 05:36:54;;;;;;;3.97;2.80;;;;;;;;;;4936615;29;20206;-86
2023/08/17 05:39:31;;;;;;;2.45;2.35;;;;;;;;;;4936462;29;20325;-87
2023/08/17 05:42:03;;;;;;;3.10;2.60;;;;;;;;;;4936409;29;20211;-86
2023/08/17 05:44:33;;;;;;;2.60;2.35;;;;;;;;;;4987060;23;20237;-86
2023/08/17 05:47:09;;;;;;;3.90;3.60;;;;;;;;;;4977241;28;20201;-84
2023/08/17 05:49:37;;;;;;;3.28;2.92;;;;;;;;;;4975483;28;20289;-87
2023/08/17 05:52:08;;;;;;;2.90;2.65;;;;;;;;;;4975289;28;20284;-87
2023/08/17 05:54:37;;;;;;;2.88;2.67;;;;;;;;;;4973079;28;20241;-87
2023/08/17 05:57:08;;;;;;;4.50;4.20;;;;;;;;;;4973635;28;20619;-87
2023/08/17 05:59:39;;;;;;;4.18;2.60;;;;;;;;;;4977906;28;20243;-85
2023/08/17 06:02:08;;;;;;;2.33;2.05;;;;;;;;;;4972436;28;20198;-86
2023/08/17 06:04:42;;;;;;;2.22;2.10;;;;;;;;;;4970850;28;20296;-85
2023/08/17 06:07:11;;;;;;;2.22;2.13;;;;;;;;;;4972257;28;20221;-87
2023/08/17 06:09:40;;;;;;;2.95;2.35;;;;;;;;;;4971860;28;20320;-87
2023/08/17 06:12:09;;;;;;;4.65;4.25;;;;;;;;;;4971984;28;20687;-87
2023/08/17 06:14:42;;;;;;;2.88;2.67;;;;;;;;;;4973759;28;20209;-87
2023/08/17 06:17:10;;;;;;;6.35;2.28;;;;;;;;;;4973854;28;20201;-87
2023/08/17 06:19:41;;;;;;;2.00;1.90;;;;;;;;;;4972421;28;20737;-88
2023/08/17 06:22:10;;;;;;;2.30;2.20;;;;;;;;;;4973919;28;20228;-87
2023/08/17 06:24:43;;;;;;;2.15;2.00;;;;;;;;;;4971177;28;20742;-86
2023/08/17 06:27:12;;;;;;;1.83;1.73;;;;;;;;;;4971054;28;20237;-87
2023/08/17 06:29:43;;;;;;;1.70;1.60;;;;;;;;;;4972107;28;20205;-85
2023/08/17 06:32:13;;;;;;;3.65;2.30;;;;;;;;;;4974790;28;20224;-86
2023/08/17 06:34:42;;;;;;;3.88;2.42;;;;;;;;;;4972184;28;20225;-85
2023/08/17 06:37:13;;;;;;;3.63;1.98;;;;;;;;;;4971670;28;20229;-86
2023/08/17 06:39:43;;;;;;;2.15;1.60;;;;;;;;;;4981062;28;20481;-86
2023/08/17 06:42:33;;;;;;;4.57;2.33;;;;;;;;;;4971800;28;20239;-87
2023/08/17 06:45:18;;;;;;;1.80;1.70;;;;;;;;;;4971468;28;20610;-86
2023/08/17 06:47:49;;;;;;;1.58;1.50;;;;;;;;;;4973360;28;20750;-86
2023/08/17 06:50:20;;;;;;;1.65;1.52;;;;;;;;;;4971535;28;20276;-86
2023/08/17 06:52:51;;;;;;;4.15;1.98;;;;;;;;;;4971155;28;20205;-87
2023/08/17 06:55:21;;;;;;;2.30;2.10;;;;;;;;;;4971454;28;20213;-88
2023/08/17 06:57:51;;;;;;;2.80;1.85;;;;;;;;;;4973189;28;20201;-88
2023/08/17 07:00:31;;;;;;;1.92;1.80;;;;;;;;;;4971272;28;20260;-86
2023/08/17 07:03:00;;;;;;;5.30;2.25;;;;;;;;;;4971191;28;20198;-87
2023/08/17 07:05:30;;;;;;;2.55;2.35;;;;;;;;;;4976287;28;20261;-87
2023/08/17 07:07:59;;;;;;;1.75;1.65;;;;;;;;;;4976006;28;20213;-86
2023/08/17 07:10:28;;;;;;;1.73;1.63;;;;;;;;;;4973250;28;20225;-87
2023/08/17 07:13:02;;;;;;;2.08;1.98;;;;;;;;;;4972352;28;20521;-86
2023/08/17 07:15:32;;;;;;;1.92;1.92;;;;;;;;;;4972815;28;20257;-87
2023/08/17 07:18:03;;;;;;;2.22;1.98;;;;;;;;;;4976360;28;20228;-87
2023/08/17 07:20:31;;;;;;;2.47;2.28;;;;;;;;;;4975545;28;20221;-87
2023/08/17 07:23:03;;;;;;;2.20;2.10;;;;;;;;;;4971077;28;20216;-88
2023/08/17 07:25:34;;;;;;;1.95;1.95;;;;;;;;;;4971868;28;20218;-86
2023/08/17 07:28:05;;;;;;;1.95;1.85;;;;;;;;;;4974952;28;20193;-87
2023/08/17 07:30:35;;;;;;;2.20;2.10;;;;;;;;;;4974426;28;20217;-88
2023/08/17 07:33:07;;;;;;;1.95;1.88;;;;;;;;;;4971978;28;20221;-88
2023/08/17 07:35:36;;;;;;;1.30;1.30;;;;;;;;;;4974654;28;20213;-88
2023/08/17 07:38:06;;;;;;;1.73;1.50;;;;;;;;;;4972809;28;20205;-87
2023/08/17 07:40:34;;;;;;;3.13;2.10;;;;;;;;;;4970459;28;20237;-87
2023/08/17 07:43:03;;;;;;;1.80;1.70;;;;;;;;;;4975430;28;20213;-88
2023/08/17 07:45:32;;;;;;;1.60;1.60;;;;;;;;;;4971135;28;20299;-87
2023/08/17 07:48:04;;;;;;;2.90;1.45;;;;;;;;;;4972271;28;20269;-87
2023/08/17 07:50:33;;;;;;;3.15;2.00;;;;;;;;;;4973522;28;20194;-87
2023/08/17 07:53:02;;;;;;;1.67;1.63;;;;;;;;;;4973881;28;20305;-88
2023/08/17 07:55:31;;;;;;;1.92;1.83;;;;;;;;;;4972917;28;20210;-88
2023/08/17 07:58:01;;;;;;;7.38;1.85;;;;;;;;;;4973732;28;20285;-86
2023/08/17 08:00:30;;;;;;;1.48;1.38;;;;;;;;;;4972898;28;20244;-88
2023/08/17 08:03:00;;;;;;;1.90;1.80;;;;;;;;;;4973242;28;20210;-88
2023/08/17 08:05:31;;;;;;;1.25;1.20;;;;;;;;;;4975154;28;20418;-88
2023/08/17 08:08:04;;;;;;;1.67;1.67;;;;;;;;;;4977054;28;20289;-88
2023/08/17 08:10:35;;;;;;;1.88;1.77;;;;;;;;;;4973352;28;20329;-87
2023/08/17 08:13:05;;;;;;;1.92;1.83;;;;;;;;;;4976601;28;20435;-89
2023/08/17 08:15:35;;;;;;;1.95;1.85;;;;;;;;;;4973887;28;20202;-87
2023/08/17 08:18:04;;;;;;;2.80;2.15;;;;;;;;;;4972796;28;20203;-88
2023/08/17 08:20:37;;;;;;;1.75;1.70;;;;;;;;;;4972367;28;20329;-87
2023/08/17 08:23:19;;;;;;;1.85;1.75;;;;;;;;;;4972629;28;20203;-86
2023/08/17 08:25:47;;;;;;;1.88;1.77;;;;;;;;;;4969982;28;20214;-86
2023/08/17 08:28:16;;;;;;;2.05;1.95;;;;;;;;;;4970316;28;20261;-86
2023/08/17 08:30:53;;;;;;;1.70;1.60;;;;;;;;;;4970194;28;20749;-87
2023/08/17 08:33:22;;;;;;;2.17;2.08;;;;;;;;;;4969865;28;20582;-87
2023/08/17 08:36:18;;;;;;;1.80;1.70;;;;;;;;;;4974707;28;20213;-86
2023/08/17 08:41:40;;;;;;;1.98;1.88;;;;;;;;;;4971770;28;20241;-87
2023/08/17 08:44:13;;;;;;;1.63;1.52;;;;;;;;;;4973326;28;20198;-88
2023/08/17 08:46:45;;;;;;;2.22;2.13;;;;;;;;;;4971508;28;20213;-89
2023/08/17 08:49:15;;;;;;;2.00;1.90;;;;;;;;;;4972459;28;20684;-86
2023/08/17 08:51:47;;;;;;;2.30;2.13;;;;;;;;;;4972700;28;20245;-89
2023/08/17 08:54:18;;;;;;;2.25;2.03;;;;;;;;;;4972935;28;20285;-87
2023/08/17 08:56:47;;;;;;;4.00;2.00;;;;;;;;;;4973140;28;20221;-88
2023/08/17 08:59:18;;;;;;;1.60;1.60;;;;;;;;;;4972240;28;20278;-86
2023/08/17 09:01:48;;;;;;;2.00;1.90;;;;;;;;;;4972136;28;20238;-87
2023/08/17 09:04:16;;;;;;;1.98;1.88;;;;;;;;;;4972837;28;20206;-87
2023/08/17 09:06:49;;;;;;;2.15;2.05;;;;;;;;;;4973490;28;20255;-87
2023/08/17 09:09:19;;;;;;;2.15;2.05;;;;;;;;;;4972313;28;20237;-86
2023/08/17 09:11:49;;;;;;;2.00;1.80;;;;;;;;;;4972744;28;20635;-90
2023/08/17 09:14:18;;;;;;;1.90;1.80;;;;;;;;;;4972255;28;20206;-86
2023/08/17 09:16:46;;;;;;;3.17;2.22;;;;;;;;;;4972041;28;20214;-87
2023/08/17 09:19:16;;;;;;;1.77;1.77;;;;;;;;;;4973215;28;20221;-86
2023/08/17 09:21:52;;;;;;;1.92;1.83;;;;;;;;;;4974405;28;20293;-86
2023/08/17 09:24:22;;;;;;;1.88;1.45;;;;;;;;;;4972574;28;20293;-86
2023/08/17 09:26:51;;;;;;;1.73;1.63;;;;;;;;;;4972521;28;20650;-86
2023/08/17 09:29:21;;;;;;;3.85;1.80;;;;;;;;;;4972613;28;20248;-87
2023/08/17 09:31:59;;;;;;;1.73;1.70;;;;;;;;;;4971387;28;20281;-87
2023/08/17 09:34:33;;;;;;;2.10;1.90;;;;;;;;;;4973158;28;20229;-88
2023/08/17 09:37:07;;;;;;;1.63;1.52;;;;;;;;;;4972720;28;20213;-89
2023/08/17 09:39:44;;;;;;;1.73;1.63;;;;;;;;;;4972321;28;20213;-88
2023/08/17 09:42:12;;;;;;;2.00;1.90;;;;;;;;;;4968153;28;20393;-87
2023/08/17 09:44:44;;;;;;;1.88;1.80;;;;;;;;;;4968178;28;20378;-87
2023/08/17 09:47:17;;;;;;;1.30;1.30;;;;;;;;;;4970591;28;20352;-88
2023/08/17 09:49:49;;;;;;;1.80;1.70;;;;;;;;;;4969878;28;20723;-88
2023/08/17 09:52:19;;;;;;;1.30;1.30;;;;;;;;;;4974129;28;20226;-86
2023/08/17 09:54:51;;;;;;;3.88;1.70;;;;;;;;;;4977817;28;20234;-87
2023/08/17 09:57:21;;;;;;;4.32;1.55;;;;;;;;;;4993695;28;20221;-87
2023/08/17 09:59:53;;;;;;;1.55;1.55;;;;;;;;;;4989934;28;20226;-87
2023/08/17 10:02:25;;;;;;;1.85;1.42;;;;;;;;;;4992866;28;20234;-87
2023/08/17 10:04:53;;;;;;;1.45;1.42;;;;;;;;;;4987995;28;20287;-88
2023/08/17 10:07:25;;;;;;;1.40;1.40;;;;;;;;;;4985473;28;20246;-87
2023/08/17 10:09:57;;;;;;;1.55;1.45;;;;;;;;;;4966030;28;20444;-87
2023/08/17 10:12:28;;;;;;;1.23;1.23;;;;;;;;;;4972647;28;20293;-85
2023/08/17 10:14:57;;;;;;;1.20;1.20;;;;;;;;;;4971015;28;20312;-86
2023/08/17 10:17:27;;;;;;;1.30;1.30;;;;;;;;;;4971102;28;20230;-87
2023/08/17 10:19:55;;;;;;;1.27;1.17;;;;;;;;;;4969692;28;20238;-86
2023/08/17 10:22:29;;;;;;;4.13;1.52;;;;;;;;;;4970852;28;20238;-86
2023/08/17 10:24:58;;;;;;;1.20;1.20;;;;;;;;;;4967394;28;20230;-86
2023/08/17 10:27:25;;;;;;;2.50;1.13;;;;;;;;;;4973234;28;20282;-86
2023/08/17 10:29:55;;;;;;;3.15;1.45;;;;;;;;;;4968420;28;20229;-87
2023/08/17 10:32:22;;;;;;;1.42;1.13;;;;;;;;;;4969584;28;20230;-85
2023/08/17 10:34:50;;;;;;;1.17;1.17;;;;;;;;;;4969830;28;20226;-86
2023/08/17 10:37:21;;;;;;;1.30;1.20;;;;;;;;;;4966178;28;20230;-86
2023/08/17 10:39:53;;;;;;;1.45;1.35;;;;;;;;;;4969370;28;20225;-85
2023/08/17 10:42:32;;;;;;;1.23;1.13;;;;;;;;;;4961923;28;20332;-87
2023/08/17 10:45:01;;;;;;;1.63;1.60;;;;;;;;;;4968239;28;20315;-87
2023/08/17 10:47:30;;;;;;;1.27;1.23;;;;;;;;;;4965427;28;20241;-87
2023/08/17 10:49:57;;;;;;;4.63;1.67;;;;;;;;;;4968798;28;20261;-86
2023/08/17 10:52:29;;;;;;;3.70;1.27;;;;;;;;;;4967060;28;20245;-85
2023/08/17 10:55:00;;;;;;;1.30;1.30;;;;;;;;;;4968893;28;20331;-85
2023/08/17 10:57:31;;;;;;;1.80;1.27;;;;;;;;;;4964221;28;20271;-86
2023/08/17 11:00:10;;;;;;;1.27;1.27;;;;;;;;;;4967819;28;20328;-86
2023/08/17 11:02:39;;;;;;;1.30;1.20;;;;;;;;;;4965741;28;20238;-88
2023/08/17 11:05:12;;;;;;;2.55;1.40;;;;;;;;;;4969211;28;20635;-88
2023/08/17 11:07:51;;;;;;;1.40;1.40;;;;;;;;;;4966844;28;20282;-85
2023/08/17 11:10:43;;;;;;;1.98;1.20;;;;;;;;;;4950535;29;20233;-87
2023/08/17 11:13:11;;;;;;;1.23;1.10;;;;;;;;;;4948165;28;20269;-89
2023/08/17 11:15:44;;;;;;;1.15;1.15;;;;;;;;;;4949767;29;20230;-87
2023/08/17 11:18:13;;;;;;;0.98;0.98;;;;;;;;;;4943165;28;20234;-87
2023/08/17 11:20:42;;;;;;;5.75;1.23;;;;;;;;;;4951076;28;20241;-87
2023/08/17 11:23:11;;;;;;;1.67;1.58;;;;;;;;;;4952374;29;20247;-87
2023/08/17 11:25:40;;;;;;;1.40;1.40;;;;;;;;;;4953566;29;20393;-88
2023/08/17 11:28:10;;;;;;;2.45;1.63;;;;;;;;;;4952135;28;20707;-88
2023/08/17 11:30:39;;;;;;;1.38;1.27;;;;;;;;;;4952442;29;20252;-87
2023/08/17 11:33:06;;;;;;;1.42;1.38;;;;;;;;;;4952281;28;20613;-87
2023/08/17 11:35:37;;;;;;;1.27;1.27;;;;;;;;;;4954134;29;20239;-87
2023/08/17 11:38:07;;;;;;;4.30;1.77;;;;;;;;;;4950224;29;20245;-86
2023/08/17 11:40:37;;;;;;;1.67;1.58;;;;;;;;;;4952969;29;20230;-87
2023/08/17 11:43:07;;;;;;;1.75;1.60;;;;;;;;;;4948191;28;20700;-87
2023/08/17 11:45:36;;;;;;;1.50;1.50;;;;;;;;;;4952065;29;20329;-86
2023/08/17 11:48:05;;;;;;;2.45;2.25;;;;;;;;;;4949265;28;20314;-86
2023/08/17 11:50:34;;;;;;;2.08;1.98;;;;;;;;;;4953598;29;20230;-85
2023/08/17 11:53:01;;;;;;;1.40;1.40;;;;;;;;;;4951022;28;20683;-86
2023/08/17 11:55:31;;;;;;;1.45;1.38;;;;;;;;;;4953481;29;20227;-87
2023/08/17 11:57:59;;;;;;;1.38;1.38;;;;;;;;;;4948871;28;20230;-83
2023/08/17 12:00:35;;;;;;;1.58;1.48;;;;;;;;;;4950986;29;20218;-84
2023/08/17 12:03:04;;;;;;;1.65;1.55;;;;;;;;;;4951050;29;20727;-83
2023/08/17 12:05:32;;;;;;;1.75;1.65;;;;;;;;;;4953743;29;20287;-82
2023/08/17 12:08:03;;;;;;;1.98;1.88;;;;;;;;;;4949676;28;20241;-85
2023/08/17 12:10:32;;;;;;;1.80;1.70;;;;;;;;;;4953883;29;20282;-86
2023/08/17 12:12:59;;;;;;;1.85;1.75;;;;;;;;;;4951584;28;20312;-85
2023/08/17 12:15:32;;;;;;;1.98;1.80;;;;;;;;;;4952029;29;20696;-86
2023/08/17 12:18:00;;;;;;;3.67;1.80;;;;;;;;;;4945992;28;20226;-86
2023/08/17 12:20:30;;;;;;;1.83;1.73;;;;;;;;;;4952627;29;20247;-85
2023/08/17 12:22:58;;;;;;;1.65;1.55;;;;;;;;;;4950877;29;20271;-84
2023/08/17 12:25:26;;;;;;;2.40;1.58;;;;;;;;;;4952789;29;20231;-85
2023/08/17 12:27:54;;;;;;;5.10;2.13;;;;;;;;;;4951566;29;20238;-86
2023/08/17 12:30:31;;;;;;;2.45;2.25;;;;;;;;;;4950687;29;20234;-85
2023/08/17 12:32:58;;;;;;;1.83;1.70;;;;;;;;;;4951178;28;20318;-85
2023/08/17 12:35:25;;;;;;;2.08;1.98;;;;;;;;;;4950212;28;20223;-86
2023/08/17 12:37:53;;;;;;;1.92;1.92;;;;;;;;;;4951430;29;20222;-86
2023/08/17 12:40:22;;;;;;;1.83;1.80;;;;;;;;;;4948379;29;20233;-86
2023/08/17 12:42:51;;;;;;;4.13;2.00;;;;;;;;;;4926488;29;20250;-86
2023/08/17 12:45:25;;;;;;;1.50;1.50;;;;;;;;;;4931077;29;20234;-86
2023/08/17 12:48:16;;;;;;;2.53;2.22;;;;;;;;;;4933847;29;20223;-86
2023/08/17 12:50:52;;;;;;;1.60;1.60;;;;;;;;;;4929893;29;20239;-86
2023/08/17 12:56:27;;;;;;;2.30;2.20;;;;;;;;;;4927914;29;20289;-87
2023/08/17 12:58:56;;;;;;;2.33;2.22;;;;;;;;;;4923748;29;20310;-88
2023/08/17 13:01:33;;;;;;;2.80;2.60;;;;;;;;;;4934356;29;20712;-87
2023/08/17 13:04:08;;;;;;;4.25;2.50;;;;;;;;;;4933268;29;20286;-87
2023/08/17 13:06:38;;;;;;;2.35;2.25;;;;;;;;;;4932324;29;20234;-87
2023/08/17 13:09:07;;;;;;;5.97;2.33;;;;;;;;;;4933517;29;20715;-87
2023/08/17 13:11:35;;;;;;;2.50;2.38;;;;;;;;;;4933152;29;20241;-86
2023/08/17 13:14:02;;;;;;;2.00;1.90;;;;;;;;;;4932614;29;20231;-86
2023/08/17 13:16:29;;;;;;;2.38;2.28;;;;;;;;;;4930447;29;20382;-87
2023/08/17 13:18:59;;;;;;;2.05;1.95;;;;;;;;;;4932390;29;20529;-87
2023/08/17 13:21:29;;;;;;;2.13;2.05;;;;;;;;;;4931402;29;20605;-86
2023/08/17 13:23:57;;;;;;;2.40;2.13;;;;;;;;;;4934485;29;20254;-86
2023/08/17 13:26:24;;;;;;;2.58;2.42;;;;;;;;;;4950622;29;20311;-85
2023/08/17 13:28:52;;;;;;;2.60;2.50;;;;;;;;;;4950833;29;20218;-86
2023/08/17 13:31:19;;;;;;;4.32;2.60;;;;;;;;;;4947964;29;20710;-87
2023/08/17 13:33:48;;;;;;;2.80;2.33;;;;;;;;;;4952650;29;20250;-86
2023/08/17 13:36:16;;;;;;;2.17;2.08;;;;;;;;;;4944031;29;20235;-86
2023/08/17 13:38:46;;;;;;;2.97;2.78;;;;;;;;;;4951104;29;20344;-86
2023/08/17 13:41:16;;;;;;;5.50;2.38;;;;;;;;;;4951334;29;20258;-87
2023/08/17 13:43:44;;;;;;;2.33;2.22;;;;;;;;;;4950921;28;20238;-86
2023/08/17 13:46:12;;;;;;;6.07;2.58;;;;;;;;;;4964563;28;20247;-86
2023/08/17 13:48:41;;;;;;;2.20;2.00;;;;;;;;;;4976038;28;20195;-86
2023/08/17 13:51:10;;;;;;;1.90;1.80;;;;;;;;;;4975271;29;20206;-86
2023/08/17 13:53:39;;;;;;;1.92;1.83;;;;;;;;;;4961865;28;20672;-87
2023/08/17 13:56:10;;;;;;;2.35;2.20;;;;;;;;;;4955711;29;20203;-85
2023/08/17 13:58:39;;;;;;;2.10;2.03;;;;;;;;;;4952594;29;20675;-86
2023/08/17 14:01:10;;;;;;;2.50;2.40;;;;;;;;;;4953911;29;20221;-88
2023/08/17 14:03:39;;;;;;;2.45;2.35;;;;;;;;;;4953641;29;20256;-86
2023/08/17 14:06:08;;;;;;;3.28;2.42;;;;;;;;;;4952293;29;20254;-87
2023/08/17 14:08:36;;;;;;;2.55;2.45;;;;;;;;;;4952588;29;20286;-88
2023/08/17 14:11:06;;;;;;;2.80;2.63;;;;;;;;;;4951538;29;20203;-86
2023/08/17 14:13:36;;;;;;;4.13;2.33;;;;;;;;;;4951421;29;20195;-87
2023/08/17 14:16:04;;;;;;;2.88;2.70;;;;;;;;;;4951598;29;20203;-85
2023/08/17 14:18:32;;;;;;;2.28;2.03;;;;;;;;;;4951438;29;20308;-87
2023/08/17 14:21:01;;;;;;;2.10;2.00;;;;;;;;;;4950313;29;20207;-86
2023/08/17 14:23:34;;;;;;;1.98;1.88;;;;;;;;;;4951567;29;20246;-86
2023/08/17 14:26:04;;;;;;;2.53;2.25;;;;;;;;;;4951857;29;20625;-86
2023/08/17 14:28:33;;;;;;;2.88;2.33;;;;;;;;;;4950493;29;20202;-87
2023/08/17 14:31:03;;;;;;;1.80;1.80;;;;;;;;;;4951429;29;20202;-88
2023/08/17 14:33:32;;;;;;;2.47;2.00;;;;;;;;;;4948560;29;20218;-86
2023/08/17 14:36:00;;;;;;;1.95;1.83;;;;;;;;;;4942261;29;20234;-87
2023/08/17 14:38:29;;;;;;;2.40;2.30;;;;;;;;;;4949647;29;20798;-86
2023/08/17 14:40:58;;;;;;;2.97;1.77;;;;;;;;;;4949192;29;20231;-87
2023/08/17 14:43:25;;;;;;;2.22;2.03;;;;;;;;;;4949251;29;20254;-86
2023/08/17 14:45:54;;;;;;;2.47;2.25;;;;;;;;;;4948061;29;20343;-84
2023/08/17 14:48:22;;;;;;;2.10;2.00;;;;;;;;;;4950602;29;20231;-84
2023/08/17 14:50:50;;;;;;;3.17;2.55;;;;;;;;;;4949079;28;20711;-86
2023/08/17 14:53:24;;;;;;;1.67;1.67;;;;;;;;;;4950434;29;20231;-85
2023/08/17 14:55:53;;;;;;;2.03;1.92;;;;;;;;;;4941825;28;20239;-85
2023/08/17 14:58:19;;;;;;;2.10;2.00;;;;;;;;;;4952252;29;20611;-86
2023/08/17 15:00:53;;;;;;;2.60;2.40;;;;;;;;;;4949022;28;20375;-86
2023/08/17 15:03:20;;;;;;;2.30;2.20;;;;;;;;;;4952909;29;20230;-86
2023/08/17 15:05:49;;;;;;;2.03;1.92;;;;;;;;;;4950880;28;20251;-85
2023/08/17 15:08:19;;;;;;;3.53;2.30;;;;;;;;;;4952663;29;20227;-87